createdAt,value
2019-01-14T00:00:40.784Z,97827.94
2019-01-14T00:03:44.566Z,97836.79
2019-01-14T00:06:48.008Z,97829.03
2019-01-14T00:09:51.495Z,97848.30
2019-01-14T00:12:57.045Z,97837.44
2019-01-14T00:16:00.636Z,97848.92
2019-01-14T00:19:04.147Z,97854.19
2019-01-14T00:22:07.730Z,97842.84
2019-01-14T00:25:11.199Z,97840.34
2019-01-14T00:28:14.744Z,97847.74
2019-01-14T00:31:18.292Z,97855.78
2019-01-14T00:34:27.908Z,97853.98
2019-01-14T00:37:32.441Z,97843.31
2019-01-14T00:40:35.957Z,97841.91
2019-01-14T00:43:39.431Z,97844.07
2019-01-14T00:46:42.916Z,97850.28
2019-01-14T00:49:48.356Z,97855.08
2019-01-14T00:52:51.976Z,97852.92
2019-01-14T00:55:55.473Z,97849.11
2019-01-14T00:58:58.977Z,97862.91
2019-01-14T01:02:02.492Z,97878.98
2019-01-14T01:05:06.645Z,97892.49
2019-01-14T01:08:10.104Z,97908.29
2019-01-14T01:11:14.609Z,97905.31
2019-01-14T01:14:18.124Z,97907.95
2019-01-14T01:17:22.659Z,97915.58
2019-01-14T01:20:26.114Z,97912.74
2019-01-14T01:23:29.642Z,97931.64
2019-01-14T01:26:33.146Z,97943.02
2019-01-14T01:29:37.670Z,97950.08
2019-01-14T01:32:41.176Z,97953.19
2019-01-14T01:35:46.716Z,97960.95
2019-01-14T01:38:50.229Z,97966.85
2019-01-14T01:41:55.769Z,97969.48
2019-01-14T01:45:01.323Z,97968.64
2019-01-14T01:48:04.759Z,97976.67
2019-01-14T01:51:08.195Z,97989.00
2019-01-14T01:54:11.825Z,97990.95
2019-01-14T01:57:15.276Z,98002.30
2019-01-14T02:00:20.255Z,98019.06
2019-01-14T02:03:23.715Z,98013.80
2019-01-14T02:06:27.259Z,98017.75
2019-01-14T02:09:30.757Z,98026.97
2019-01-14T02:12:35.274Z,98041.71
2019-01-14T02:15:44.716Z,98038.73
2019-01-14T02:18:48.234Z,98049.00
2019-01-14T02:21:51.726Z,98062.44
2019-01-14T02:24:55.230Z,98076.57
2019-01-14T02:27:58.754Z,98072.76
2019-01-14T02:31:02.225Z,98087.70
2019-01-14T02:34:05.735Z,98095.27
2019-01-14T02:37:09.167Z,98102.66
2019-01-14T02:40:17.229Z,98109.02
2019-01-14T02:43:20.742Z,98120.88
2019-01-14T02:46:25.261Z,98129.14
2019-01-14T02:49:29.813Z,98142.30
2019-01-14T02:52:39.551Z,98144.35
2019-01-14T02:55:40.468Z,98142.91
2019-01-14T02:58:43.997Z,98152.72
2019-01-14T03:01:47.478Z,98159.67
2019-01-14T03:04:53.023Z,98156.91
2019-01-14T03:07:57.548Z,98180.09
2019-01-14T03:11:02.075Z,98177.38
2019-01-14T03:14:05.578Z,98181.33
2019-01-14T03:17:09.012Z,98187.23
2019-01-14T03:20:13.268Z,98195.21
2019-01-14T03:23:16.909Z,98202.39
2019-01-14T03:26:20.390Z,98209.60
2019-01-14T03:29:25.946Z,98209.60
2019-01-14T03:32:31.501Z,98217.13
2019-01-14T03:35:34.992Z,98218.09
2019-01-14T03:38:38.443Z,98221.33
2019-01-14T03:41:42.001Z,98237.84
2019-01-14T03:44:45.608Z,98238.44
2019-01-14T03:47:49.109Z,98252.91
2019-01-14T03:50:52.713Z,98257.83
2019-01-14T03:53:56.217Z,98264.75
2019-01-14T03:56:59.732Z,98259.48
2019-01-14T04:00:03.984Z,98274.22
2019-01-14T04:03:07.535Z,98288.70
2019-01-14T04:06:11.028Z,98300.91
2019-01-14T04:09:14.497Z,98297.56
2019-01-14T04:12:18.031Z,98309.41
2019-01-14T04:15:21.528Z,98315.02
2019-01-14T04:18:25.031Z,98319.34
2019-01-14T04:21:30.587Z,98334.06
2019-01-14T04:24:36.133Z,98335.72
2019-01-14T04:27:39.577Z,98348.53
2019-01-14T04:30:43.142Z,98362.28
2019-01-14T04:33:46.648Z,98376.77
2019-01-14T04:36:50.130Z,98386.35
2019-01-14T04:39:54.659Z,98395.43
2019-01-14T04:42:58.164Z,98398.44
2019-01-14T04:46:04.733Z,98403.33
2019-01-14T04:49:09.279Z,98409.31
2019-01-14T04:52:12.768Z,98416.02
2019-01-14T04:55:18.304Z,98426.89
2019-01-14T04:58:21.800Z,98425.84
2019-01-14T05:01:26.337Z,98443.89
2019-01-14T05:04:29.834Z,98446.05
2019-01-14T05:07:33.377Z,98451.78
2019-01-14T05:10:36.839Z,98452.88
2019-01-14T05:13:42.280Z,98461.12
2019-01-14T05:16:45.778Z,98475.24
2019-01-14T05:19:50.218Z,98477.03
2019-01-14T05:22:54.006Z,98466.03
2019-01-14T05:25:57.613Z,98480.16
2019-01-14T05:29:01.170Z,98491.03
2019-01-14T05:32:04.618Z,98499.89
2019-01-14T05:35:09.474Z,98508.72
2019-01-14T05:38:12.947Z,98512.67
2019-01-14T05:41:18.392Z,98521.87
2019-01-14T05:44:23.044Z,98525.72
2019-01-14T05:47:26.589Z,98524.41
2019-01-14T05:50:30.143Z,98545.45
2019-01-14T05:53:33.630Z,98549.40
2019-01-14T05:56:38.155Z,98555.98
2019-01-14T05:59:41.667Z,98575.25
2019-01-14T06:02:45.164Z,98578.22
2019-01-14T06:05:49.694Z,98588.40
2019-01-14T06:08:53.196Z,98602.88
2019-01-14T06:11:58.747Z,98613.05
2019-01-14T06:15:02.213Z,98620.44
2019-01-14T06:18:06.752Z,98631.47
2019-01-14T06:21:10.279Z,98641.88
2019-01-14T06:24:14.596Z,98643.77
2019-01-14T06:27:21.058Z,98658.71
2019-01-14T06:30:26.394Z,98654.30
2019-01-14T06:33:31.013Z,98653.22
2019-01-14T06:36:34.525Z,98647.38
2019-01-14T06:39:38.027Z,98648.69
2019-01-14T06:42:41.487Z,98646.05
2019-01-14T06:45:46.064Z,98647.38
2019-01-14T06:48:49.586Z,98665.79
2019-01-14T06:51:53.121Z,98664.09
2019-01-14T06:54:56.580Z,98667.11
2019-01-14T06:58:00.035Z,98675.34
2019-01-14T07:01:04.111Z,98676.31
2019-01-14T07:04:07.560Z,98662.77
2019-01-14T07:07:11.101Z,98669.35
2019-01-14T07:10:17.633Z,98671.63
2019-01-14T07:13:21.127Z,98670.31
2019-01-14T07:16:24.658Z,98683.83
2019-01-14T07:19:28.134Z,98679.88
2019-01-14T07:22:31.812Z,98686.11
2019-01-14T07:25:35.460Z,98686.95
2019-01-14T07:28:38.947Z,98681.80
2019-01-14T07:31:42.451Z,98698.06
2019-01-14T07:34:47.022Z,98693.27
2019-01-14T07:37:50.470Z,98689.31
2019-01-14T07:40:56.019Z,98697.82
2019-01-14T07:44:00.546Z,98707.03
2019-01-14T07:47:06.109Z,98712.76
2019-01-14T07:50:11.036Z,98712.87
2019-01-14T07:53:14.553Z,98714.92
2019-01-14T07:56:18.133Z,98699.02
2019-01-14T07:59:21.619Z,98696.74
2019-01-14T08:02:25.169Z,98701.54
2019-01-14T08:05:28.658Z,98714.45
2019-01-14T08:08:32.254Z,98714.57
2019-01-14T08:11:35.774Z,98710.98
2019-01-14T08:14:42.731Z,98736.67
2019-01-14T08:17:45.478Z,98744.11
2019-01-14T08:20:48.928Z,98765.39
2019-01-14T08:23:52.413Z,98767.09
2019-01-14T08:26:55.953Z,98773.80
2019-01-14T08:29:59.398Z,98781.34
2019-01-14T08:33:02.924Z,98781.69
2019-01-14T08:36:06.423Z,98796.98
2019-01-14T08:39:10.942Z,98814.48
2019-01-14T08:42:15.643Z,98831.59
2019-01-14T08:45:19.158Z,98840.94
2019-01-14T08:48:24.734Z,98848.61
2019-01-14T08:51:28.232Z,98854.00
2019-01-14T08:54:33.773Z,98850.05
2019-01-14T08:57:37.220Z,98857.73
2019-01-14T09:00:40.836Z,98868.26
2019-01-14T09:03:44.471Z,98879.38
2019-01-14T09:06:47.997Z,98885.86
2019-01-14T09:09:51.646Z,98872.20
2019-01-14T09:12:55.150Z,98882.64
2019-01-14T09:15:58.601Z,98877.38
2019-01-14T09:19:02.063Z,98883.38
2019-01-14T09:22:05.605Z,98883.52
2019-01-14T09:25:09.138Z,98883.64
2019-01-14T09:28:12.677Z,98895.27
2019-01-14T09:31:16.121Z,98888.68
2019-01-14T09:34:19.621Z,98885.20
2019-01-14T09:37:23.085Z,98896.20
2019-01-14T09:40:26.577Z,98891.31
2019-01-14T09:43:30.025Z,98893.95
2019-01-14T09:46:33.544Z,98886.75
2019-01-14T09:49:37.186Z,98894.06
2019-01-14T09:52:40.811Z,98888.30
2019-01-14T09:55:45.234Z,98882.08
2019-01-14T09:58:48.722Z,98908.05
2019-01-14T10:01:52.185Z,98905.67
2019-01-14T10:04:55.902Z,98905.67
2019-01-14T10:07:59.454Z,98906.88
2019-01-14T10:11:02.917Z,98913.92
2019-01-14T10:14:06.440Z,98910.55
2019-01-14T10:17:11.324Z,98907.56
2019-01-14T10:20:14.861Z,98907.78
2019-01-14T10:23:18.368Z,98903.48
2019-01-14T10:26:21.848Z,98900.84
2019-01-14T10:29:26.377Z,98898.57
2019-01-14T10:32:29.981Z,98892.21
2019-01-14T10:35:34.655Z,98898.09
2019-01-14T10:38:38.174Z,98901.54
2019-01-14T10:41:41.617Z,98904.45
2019-01-14T10:44:45.069Z,98893.28
2019-01-14T10:47:48.525Z,98888.65
2019-01-14T10:50:52.121Z,98897.25
2019-01-14T10:53:55.647Z,98899.89
2019-01-14T10:56:59.090Z,98895.71
2019-01-14T11:00:04.658Z,98903.03
2019-01-14T11:03:08.341Z,98901.84
2019-01-14T11:06:11.901Z,98894.88
2019-01-14T11:09:15.390Z,98889.48
2019-01-14T11:12:19.893Z,98891.19
2019-01-14T11:15:24.424Z,98888.68
2019-01-14T11:18:27.913Z,98889.14
2019-01-14T11:21:31.352Z,98895.48
2019-01-14T11:24:51.012Z,98900.53
2019-01-14T11:27:55.475Z,98892.25
2019-01-14T11:30:59.931Z,98914.05
2019-01-14T11:34:03.466Z,98903.87
2019-01-14T11:37:10.255Z,98902.72
2019-01-14T11:40:16.923Z,98912.86
2019-01-14T11:43:20.516Z,98917.42
2019-01-14T11:46:26.048Z,98911.64
2019-01-14T11:49:29.570Z,98909.01
2019-01-14T11:52:35.117Z,98901.22
2019-01-14T11:55:38.610Z,98912.61
2019-01-14T11:58:43.166Z,98904.19
2019-01-14T12:01:46.610Z,98913.05
2019-01-14T12:04:50.351Z,98899.78
2019-01-14T12:07:56.444Z,98908.66
2019-01-14T12:10:59.803Z,98911.40
2019-01-14T12:14:03.323Z,98916.20
2019-01-14T12:17:07.828Z,98917.85
2019-01-14T12:20:12.477Z,98902.30
2019-01-14T12:23:16.055Z,98916.55
2019-01-14T12:26:19.577Z,98913.92
2019-01-14T12:29:25.121Z,98907.11
2019-01-14T12:32:28.629Z,98904.48
2019-01-14T12:35:33.118Z,98959.78
2019-01-14T12:38:36.741Z,98977.61
2019-01-14T12:41:40.382Z,98989.84
2019-01-14T12:44:45.906Z,98982.30
2019-01-14T12:47:50.397Z,98979.03
2019-01-14T12:50:53.908Z,98971.13
2019-01-14T12:53:57.397Z,98970.31
2019-01-14T12:57:00.912Z,98977.77
2019-01-14T13:00:09.003Z,98985.67
2019-01-14T13:03:12.616Z,98978.34
2019-01-14T13:06:16.142Z,98978.13
2019-01-14T13:09:26.759Z,98991.42
2019-01-14T13:12:26.089Z,99009.29
2019-01-14T13:15:29.690Z,99014.17
2019-01-14T13:18:39.207Z,99015.13
2019-01-14T13:21:43.659Z,99018.73
2019-01-14T13:24:50.305Z,99023.39
2019-01-14T13:27:53.933Z,98999.44
2019-01-14T13:30:58.472Z,99012.01
2019-01-14T13:34:05.154Z,99025.89
2019-01-14T13:37:08.659Z,99047.92
2019-01-14T13:40:12.278Z,99051.62
2019-01-14T13:43:16.786Z,99045.75
2019-01-14T13:46:26.193Z,99030.80
2019-01-14T13:49:25.615Z,99035.71
2019-01-14T13:52:30.237Z,99031.16
2019-01-14T13:55:33.838Z,99026.73
2019-01-14T13:58:37.337Z,99039.05
2019-01-14T14:01:40.842Z,99048.16
2019-01-14T14:04:44.471Z,99057.84
2019-01-14T14:07:48.061Z,99079.41
2019-01-14T14:10:51.552Z,99075.22
2019-01-14T14:13:56.098Z,99093.41
2019-01-14T14:16:59.663Z,99112.80
2019-01-14T14:20:03.705Z,99132.63
2019-01-14T14:23:07.143Z,99134.02
2019-01-14T14:26:10.799Z,99148.85
2019-01-14T14:29:15.496Z,99135.33
2019-01-14T14:32:19.132Z,99134.13
2019-01-14T14:35:22.629Z,99132.45
2019-01-14T14:38:26.166Z,99118.78
2019-01-14T14:41:32.712Z,99114.02
2019-01-14T14:44:36.233Z,99125.37
2019-01-14T14:47:39.810Z,99137.61
2019-01-14T14:50:43.433Z,99136.86
2019-01-14T14:53:48.060Z,99146.28
2019-01-14T14:56:52.766Z,99146.67
2019-01-14T14:59:56.381Z,99143.08
2019-01-14T15:02:59.883Z,99142.34
2019-01-14T15:06:13.978Z,99138.53
2019-01-14T15:09:17.534Z,99129.49
2019-01-14T15:12:22.153Z,99134.77
2019-01-14T15:15:27.271Z,99150.70
2019-01-14T15:18:30.901Z,99149.95
2019-01-14T15:21:34.425Z,99152.95
2019-01-14T15:24:37.920Z,99156.54
2019-01-14T15:27:41.424Z,99152.70
2019-01-14T15:30:44.912Z,99168.99
2019-01-14T15:33:48.415Z,99176.78
2019-01-14T15:36:52.921Z,99184.55
2019-01-14T15:40:03.080Z,99193.20
2019-01-14T15:43:01.775Z,99198.47
2019-01-14T15:46:05.272Z,99211.63
2019-01-14T15:49:08.806Z,99218.68
2019-01-14T15:52:12.306Z,99234.98
2019-01-14T15:55:18.038Z,99237.97
2019-01-14T15:58:21.522Z,99250.18
2019-01-14T16:01:25.050Z,99255.09
2019-01-14T16:04:28.548Z,99276.72
2019-01-14T16:07:32.217Z,99281.06
2019-01-14T16:10:35.756Z,99297.43
2019-01-14T16:13:39.345Z,99299.11
2019-01-14T16:16:43.982Z,99308.46
2019-01-14T16:19:47.498Z,99327.16
2019-01-14T16:22:51.084Z,99330.34
2019-01-14T16:25:54.623Z,99340.06
2019-01-14T16:28:58.626Z,99351.22
2019-01-14T16:32:13.683Z,99360.08
2019-01-14T16:35:18.573Z,99360.89
2019-01-14T16:38:23.093Z,99368.80
2019-01-14T16:41:26.755Z,99374.92
2019-01-14T16:44:30.275Z,99388.09
2019-01-14T16:47:39.661Z,99398.63
2019-01-14T16:50:45.256Z,99398.63
2019-01-14T16:53:48.736Z,99399.84
2019-01-14T16:56:55.657Z,99413.37
2019-01-14T16:59:59.102Z,99419.33
2019-01-14T17:03:02.737Z,99418.83
2019-01-14T17:06:06.333Z,99437.01
2019-01-14T17:09:10.951Z,99445.50
2019-01-14T17:12:15.447Z,99447.73
2019-01-14T17:15:21.034Z,99452.64
2019-01-14T17:18:24.472Z,99465.25
2019-01-14T17:21:28.072Z,99470.72
2019-01-14T17:24:31.494Z,99479.94
2019-01-14T17:27:37.058Z,99489.61
2019-01-14T17:30:40.573Z,99493.30
2019-01-14T17:33:44.090Z,99494.42
2019-01-14T17:36:47.565Z,99500.24
2019-01-14T17:39:51.081Z,99507.97
2019-01-14T17:42:54.565Z,99514.55
2019-01-14T17:45:59.097Z,99515.60
2019-01-14T17:49:02.735Z,99515.11
2019-01-14T17:52:07.441Z,99518.70
2019-01-14T17:55:11.149Z,99532.23
2019-01-14T17:58:14.724Z,99532.23
2019-01-14T18:01:18.244Z,99534.13
2019-01-14T18:04:21.756Z,99542.13
2019-01-14T18:07:25.291Z,99545.61
2019-01-14T18:10:29.762Z,99550.02
2019-01-14T18:13:33.313Z,99553.12
2019-01-14T18:16:43.604Z,99558.20
2019-01-14T18:19:47.221Z,99562.33
2019-01-14T18:22:52.651Z,99569.50
2019-01-14T18:25:56.205Z,99574.77
2019-01-14T18:28:59.820Z,99585.30
2019-01-14T18:32:03.362Z,99591.12
2019-01-14T18:35:07.011Z,99590.66
2019-01-14T18:38:12.537Z,99596.84
2019-01-14T18:41:16.051Z,99604.37
2019-01-14T18:44:19.529Z,99617.08
2019-01-14T18:47:23.038Z,99620.08
2019-01-14T18:50:26.581Z,99630.25
2019-01-14T18:53:30.015Z,99639.46
2019-01-14T18:56:33.541Z,99641.70
2019-01-14T18:59:37.051Z,99640.77
2019-01-14T19:02:40.545Z,99653.94
2019-01-14T19:05:44.066Z,99661.07
2019-01-14T19:08:47.547Z,99665.39
2019-01-14T19:11:51.106Z,99659.39
2019-01-14T19:14:54.573Z,99663.34
2019-01-14T19:17:58.085Z,99669.92
2019-01-14T19:21:02.592Z,99678.67
2019-01-14T19:24:06.093Z,99686.58
2019-01-14T19:27:16.443Z,99691.53
2019-01-14T19:30:17.058Z,99698.11
2019-01-14T19:33:20.697Z,99701.70
2019-01-14T19:36:26.229Z,99712.59
2019-01-14T19:39:29.743Z,99709.59
2019-01-14T19:42:33.266Z,99712.23
2019-01-14T19:45:38.781Z,99719.36
2019-01-14T19:48:42.277Z,99718.98
2019-01-14T19:51:47.719Z,99727.84
2019-01-14T19:54:51.320Z,99732.92
2019-01-14T19:57:55.919Z,99739.41
2019-01-14T20:00:59.566Z,99740.06
2019-01-14T20:04:05.169Z,99748.36
2019-01-14T20:07:11.138Z,99751.73
2019-01-14T20:10:14.454Z,99756.91
2019-01-14T20:13:18.069Z,99761.12
2019-01-14T20:16:22.630Z,99767.90
2019-01-14T20:19:27.185Z,99762.36
2019-01-14T20:22:30.827Z,99770.75
2019-01-14T20:25:34.328Z,99771.03
2019-01-14T20:28:38.856Z,99769.22
2019-01-14T20:31:42.478Z,99774.89
2019-01-14T20:34:46.069Z,99773.94
2019-01-14T20:37:49.590Z,99784.29
2019-01-14T20:40:55.101Z,99788.61
2019-01-14T20:44:05.124Z,99785.97
2019-01-14T20:47:05.808Z,99788.61
2019-01-14T20:50:11.350Z,99792.02
2019-01-14T20:53:15.998Z,99801.59
2019-01-14T20:56:19.592Z,99810.81
2019-01-14T20:59:24.095Z,99809.87
2019-01-14T21:02:27.645Z,99816.77
2019-01-14T21:05:31.107Z,99815.81
2019-01-14T21:08:34.745Z,99821.94
2019-01-14T21:11:38.319Z,99823.25
2019-01-14T21:14:41.743Z,99822.67
2019-01-14T21:17:45.177Z,99823.99
2019-01-14T21:20:48.919Z,99817.41
2019-01-14T21:23:53.350Z,99835.30
2019-01-14T21:26:56.807Z,99830.03
2019-01-14T21:30:01.373Z,99826.54
2019-01-14T21:33:06.927Z,99830.21
2019-01-14T21:36:10.441Z,99830.48
2019-01-14T21:39:13.929Z,99825.30
2019-01-14T21:42:17.431Z,99835.19
2019-01-14T21:45:22.968Z,99833.02
2019-01-14T21:48:28.549Z,99836.59
2019-01-14T21:51:32.123Z,99832.91
2019-01-14T21:54:35.573Z,99834.69
2019-01-14T21:57:39.008Z,99828.86
2019-01-14T22:00:43.547Z,99820.56
2019-01-14T22:03:47.043Z,99826.86
2019-01-14T22:06:50.549Z,99829.41
2019-01-14T22:09:54.049Z,99826.95
2019-01-14T22:12:58.588Z,99823.95
2019-01-14T22:16:02.121Z,99823.58
2019-01-14T22:19:05.585Z,99828.36
2019-01-14T22:22:10.129Z,99832.48
2019-01-14T22:25:13.591Z,99824.22
2019-01-14T22:28:17.021Z,99828.74
2019-01-14T22:31:20.510Z,99831.55
2019-01-14T22:34:24.118Z,99832.20
2019-01-14T22:37:27.563Z,99828.83
2019-01-14T22:40:31.032Z,99825.80
2019-01-14T22:43:34.519Z,99840.28
2019-01-14T22:46:38.399Z,99836.33
2019-01-14T22:49:41.879Z,99833.33
2019-01-14T22:52:48.450Z,99840.00
2019-01-14T22:55:54.966Z,99835.77
2019-01-14T22:58:59.485Z,99832.77
2019-01-14T23:02:05.034Z,99826.18
2019-01-14T23:05:08.541Z,99841.20
2019-01-14T23:08:14.123Z,99831.98
2019-01-14T23:11:23.634Z,99834.80
2019-01-14T23:14:27.130Z,99835.74
2019-01-14T23:17:30.654Z,99834.05
2019-01-14T23:20:34.141Z,99836.69
2019-01-14T23:23:37.751Z,99832.34
2019-01-14T23:26:44.490Z,99837.60
2019-01-14T23:29:48.033Z,99828.88
2019-01-14T23:32:51.521Z,99831.20
2019-01-14T23:35:58.089Z,99822.07
2019-01-14T23:39:05.461Z,99818.61
2019-01-14T23:42:08.979Z,99829.88
2019-01-14T23:45:12.488Z,99816.06
2019-01-14T23:48:15.989Z,99825.91
2019-01-14T23:51:20.525Z,99824.22
2019-01-14T23:54:26.061Z,99817.19
2019-01-14T23:57:29.578Z,99808.44
